createdAt,value
2023-02-27T00:02:17.935Z,73.38
2023-02-27T00:04:45.778Z,73.43
2023-02-27T00:07:14.918Z,73.82
2023-02-27T00:09:42.716Z,73.94
2023-02-27T00:12:11.998Z,74.21
2023-02-27T00:14:39.853Z,74.30
2023-02-27T00:17:07.981Z,74.53
2023-02-27T00:19:35.802Z,74.72
2023-02-27T00:22:03.593Z,74.60
2023-02-27T00:24:32.779Z,74.82
2023-02-27T00:27:00.634Z,74.88
2023-02-27T00:29:28.851Z,75.11
2023-02-27T00:31:56.855Z,75.07
2023-02-27T00:34:25.491Z,74.94
2023-02-27T00:36:54.102Z,74.91
2023-02-27T00:39:21.867Z,74.82
2023-02-27T00:41:51.031Z,74.84
2023-02-27T00:44:18.828Z,75.05
2023-02-27T00:46:47.109Z,75.15
2023-02-27T00:49:14.910Z,75.05
2023-02-27T00:51:42.982Z,74.95
2023-02-27T00:54:10.737Z,75.01
2023-02-27T00:56:38.527Z,75.21
2023-02-27T00:59:08.020Z,75.51
2023-02-27T01:01:36.100Z,75.46
2023-02-27T01:04:03.895Z,75.25
2023-02-27T01:06:31.670Z,75.50
2023-02-27T01:08:59.438Z,75.79
2023-02-27T01:11:27.611Z,75.97
2023-02-27T01:13:55.665Z,75.93
2023-02-27T01:16:25.440Z,75.98
2023-02-27T01:18:53.537Z,75.69
2023-02-27T01:21:21.833Z,75.68
2023-02-27T01:23:49.799Z,75.74
2023-02-27T01:26:20.255Z,75.95
2023-02-27T01:28:48.138Z,75.97
2023-02-27T01:31:16.224Z,76.27
2023-02-27T01:33:45.400Z,76.56
2023-02-27T01:36:13.189Z,76.89
2023-02-27T01:38:40.979Z,77.08
2023-02-27T01:41:08.895Z,77.30
2023-02-27T01:43:55.304Z,77.38
2023-02-27T01:46:23.416Z,77.24
2023-02-27T01:48:55.678Z,77.72
2023-02-27T01:51:23.653Z,77.60
2023-02-27T01:53:54.193Z,77.64
2023-02-27T01:56:24.788Z,77.67
2023-02-27T01:58:56.955Z,77.86
2023-02-27T02:01:26.712Z,78.04
2023-02-27T02:04:02.608Z,77.86
2023-02-27T02:06:37.114Z,77.83
2023-02-27T02:09:08.362Z,77.58
2023-02-27T02:11:36.487Z,77.56
2023-02-27T02:14:04.309Z,77.94
2023-02-27T02:16:55.065Z,78.22
2023-02-27T02:20:07.428Z,78.11
2023-02-27T02:23:09.710Z,78.64
2023-02-27T02:26:05.182Z,78.33
2023-02-27T02:29:14.337Z,78.23
2023-02-27T02:32:26.289Z,78.34
2023-02-27T02:35:15.963Z,78.16
2023-02-27T02:38:09.267Z,78.22
2023-02-27T02:40:44.806Z,78.39
2023-02-27T02:43:20.918Z,78.64
2023-02-27T02:45:59.801Z,78.92
2023-02-27T02:48:34.041Z,79.66
2023-02-27T02:51:09.101Z,80.03
2023-02-27T02:53:44.462Z,80.16
2023-02-27T02:56:20.607Z,80.19
2023-02-27T02:58:59.716Z,80.29
2023-02-27T03:01:34.515Z,80.72
2023-02-27T03:04:08.925Z,81.18
2023-02-27T03:06:41.473Z,81.52
2023-02-27T03:09:16.174Z,81.30
2023-02-27T03:11:49.534Z,81.45
2023-02-27T03:14:22.814Z,81.69
2023-02-27T03:16:55.506Z,82.08
2023-02-27T03:19:26.438Z,82.24
2023-02-27T03:21:59.689Z,82.39
2023-02-27T03:24:33.613Z,82.68
2023-02-27T03:27:05.135Z,82.83
2023-02-27T03:29:44.966Z,82.42
2023-02-27T03:32:18.745Z,82.38
2023-02-27T03:34:46.997Z,82.50
2023-02-27T03:37:27.620Z,82.78
2023-02-27T03:40:06.469Z,83.18
2023-02-27T03:42:41.632Z,83.76
2023-02-27T03:45:25.471Z,83.54
2023-02-27T03:47:53.761Z,83.60
2023-02-27T03:50:22.297Z,83.70
2023-02-27T03:52:51.086Z,84.04
2023-02-27T03:55:22.788Z,83.89
2023-02-27T03:57:52.834Z,83.99
2023-02-27T04:00:22.982Z,83.69
2023-02-27T04:02:53.617Z,83.95
2023-02-27T04:05:25.500Z,83.89
2023-02-27T04:08:16.390Z,84.02
2023-02-27T04:10:57.342Z,83.98
2023-02-27T04:13:46.913Z,83.94
2023-02-27T04:16:37.703Z,84.12
2023-02-27T04:19:18.617Z,84.29
2023-02-27T04:21:55.209Z,84.44
2023-02-27T04:24:37.256Z,84.42
2023-02-27T04:27:16.432Z,84.42
2023-02-27T04:29:56.623Z,84.44
2023-02-27T04:32:34.190Z,84.66
2023-02-27T04:35:07.063Z,84.99
2023-02-27T04:37:43.457Z,85.57
2023-02-27T04:40:14.474Z,85.69
2023-02-27T04:42:48.239Z,85.79
2023-02-27T04:45:21.874Z,85.96
2023-02-27T04:47:54.875Z,85.86
2023-02-27T04:50:28.077Z,86.05
2023-02-27T04:53:01.228Z,86.09
2023-02-27T04:55:34.030Z,86.25
2023-02-27T04:58:10.502Z,86.38
2023-02-27T05:00:42.792Z,86.57
2023-02-27T05:03:15.634Z,86.52
2023-02-27T05:05:46.529Z,86.86
2023-02-27T05:08:20.260Z,86.89
2023-02-27T05:10:53.831Z,87.20
2023-02-27T05:13:28.399Z,87.29
2023-02-27T05:16:04.286Z,87.55
2023-02-27T05:18:32.397Z,87.53
2023-02-27T05:21:10.361Z,87.75
2023-02-27T05:23:44.895Z,87.73
2023-02-27T05:26:18.976Z,87.62
2023-02-27T05:28:55.136Z,87.76
2023-02-27T05:31:29.589Z,87.58
2023-02-27T05:34:05.036Z,87.81
2023-02-27T05:36:36.062Z,87.57
2023-02-27T05:39:06.732Z,87.63
2023-02-27T05:41:38.312Z,87.88
2023-02-27T05:44:09.988Z,87.54
2023-02-27T05:46:44.788Z,87.63
2023-02-27T05:49:18.368Z,87.95
2023-02-27T05:51:50.504Z,88.18
2023-02-27T05:54:25.254Z,88.39
2023-02-27T05:56:57.139Z,88.72
2023-02-27T05:59:30.171Z,88.64
2023-02-27T06:01:59.357Z,88.85
2023-02-27T06:04:27.324Z,88.76
2023-02-27T06:06:55.361Z,88.49
2023-02-27T06:09:23.113Z,88.29
2023-02-27T06:11:50.900Z,88.41
2023-02-27T06:14:18.787Z,88.55
2023-02-27T06:16:46.587Z,88.38
2023-02-27T06:19:15.755Z,88.34
2023-02-27T06:21:43.531Z,88.52
2023-02-27T06:24:11.276Z,88.61
2023-02-27T06:26:39.056Z,88.98
2023-02-27T06:29:06.840Z,89.09
2023-02-27T06:31:34.586Z,89.21
2023-02-27T06:34:02.913Z,89.11
2023-02-27T06:36:32.177Z,89.12
2023-02-27T06:39:00.031Z,88.95
2023-02-27T06:41:28.545Z,89.19
2023-02-27T06:43:58.059Z,89.09
2023-02-27T06:46:26.331Z,88.97
2023-02-27T06:48:54.458Z,89.16
2023-02-27T06:51:22.273Z,89.00
2023-02-27T06:53:51.502Z,89.21
2023-02-27T06:56:19.470Z,89.51
2023-02-27T06:58:47.260Z,89.71
2023-02-27T07:01:15.190Z,89.78
2023-02-27T07:03:43.017Z,90.24
2023-02-27T07:06:12.009Z,89.74
2023-02-27T07:09:01.027Z,89.87
2023-02-27T07:11:29.643Z,89.81
2023-02-27T07:13:57.707Z,89.83
2023-02-27T07:16:25.755Z,89.77
2023-02-27T07:18:53.695Z,89.93
2023-02-27T07:21:21.478Z,89.84
2023-02-27T07:23:49.237Z,89.88
2023-02-27T07:26:17.059Z,89.57
2023-02-27T07:28:46.171Z,89.49
2023-02-27T07:31:14.248Z,89.38
2023-02-27T07:33:42.002Z,89.15
2023-02-27T07:36:09.974Z,88.84
2023-02-27T07:38:37.706Z,88.55
2023-02-27T07:41:05.838Z,88.30
2023-02-27T07:43:33.590Z,87.93
2023-02-27T07:46:04.117Z,87.50
2023-02-27T07:48:32.037Z,87.03
2023-02-27T07:51:00.210Z,86.36
2023-02-27T07:53:28.381Z,85.22
2023-02-27T07:55:56.210Z,84.16
2023-02-27T07:58:23.981Z,82.44
2023-02-27T08:00:52.047Z,81.19
2023-02-27T08:03:21.213Z,79.84
2023-02-27T08:05:49.278Z,78.47
2023-02-27T08:08:17.032Z,76.73
2023-02-27T08:10:44.952Z,75.25
2023-02-27T08:13:12.768Z,73.55
2023-02-27T08:15:41.289Z,72.35
2023-02-27T08:18:09.197Z,71.24
2023-02-27T08:20:38.432Z,69.64
2023-02-27T08:23:06.875Z,68.30
2023-02-27T08:25:34.680Z,66.83
2023-02-27T08:28:02.701Z,66.18
2023-02-27T08:30:30.696Z,64.77
2023-02-27T08:32:58.718Z,63.94
2023-02-27T08:35:26.561Z,64.23
2023-02-27T08:37:55.669Z,63.52
2023-02-27T08:40:23.494Z,64.86
2023-02-27T08:42:52.646Z,63.30
2023-02-27T08:45:20.472Z,62.18
2023-02-27T08:47:48.278Z,61.39
2023-02-27T08:50:16.041Z,60.29
2023-02-27T08:52:43.831Z,59.02
2023-02-27T08:55:13.188Z,58.33
2023-02-27T08:57:40.988Z,57.54
2023-02-27T09:00:14.578Z,56.71
2023-02-27T09:02:42.550Z,56.35
2023-02-27T09:05:11.435Z,56.09
2023-02-27T09:07:39.302Z,55.69
2023-02-27T09:10:08.209Z,55.51
2023-02-27T09:12:37.555Z,54.99
2023-02-27T09:15:06.338Z,55.70
2023-02-27T09:17:34.208Z,54.88
2023-02-27T09:20:02.051Z,53.23
2023-02-27T09:22:30.032Z,52.75
2023-02-27T09:24:57.900Z,51.77
2023-02-27T09:27:26.012Z,51.38
2023-02-27T09:29:56.385Z,50.50
2023-02-27T09:32:24.546Z,49.99
2023-02-27T09:34:52.528Z,49.93
2023-02-27T09:37:20.572Z,49.38
2023-02-27T09:39:48.518Z,48.44
2023-02-27T09:42:20.415Z,48.26
2023-02-27T09:44:51.582Z,47.64
2023-02-27T09:47:27.643Z,46.93
2023-02-27T09:50:08.127Z,46.48
2023-02-27T09:52:38.415Z,45.37
2023-02-27T09:55:07.494Z,45.87
2023-02-27T09:57:45.619Z,45.27
2023-02-27T10:00:30.402Z,44.51
2023-02-27T10:03:12.628Z,43.58
2023-02-27T10:05:45.811Z,44.13
2023-02-27T10:08:22.749Z,43.17
2023-02-27T10:10:55.029Z,46.38
2023-02-27T10:13:37.918Z,43.73
2023-02-27T10:16:06.773Z,46.26
2023-02-27T10:18:38.399Z,46.73
2023-02-27T10:21:11.825Z,41.67
2023-02-27T10:23:44.735Z,40.89
2023-02-27T10:26:20.683Z,41.16
2023-02-27T10:28:48.862Z,40.59
2023-02-27T10:31:21.199Z,40.50
2023-02-27T10:33:51.897Z,39.94
2023-02-27T10:36:33.051Z,41.57
2023-02-27T10:39:07.070Z,41.34
2023-02-27T10:41:36.885Z,41.00
2023-02-27T10:44:05.528Z,41.83
2023-02-27T10:46:38.091Z,42.10
2023-02-27T10:49:18.321Z,41.88
2023-02-27T10:51:47.395Z,40.77
2023-02-27T10:54:19.924Z,39.14
2023-02-27T10:56:52.136Z,39.28
2023-02-27T10:59:23.600Z,38.87
2023-02-27T11:01:54.353Z,37.65
2023-02-27T11:04:30.972Z,37.80
2023-02-27T11:07:00.391Z,36.31
2023-02-27T11:09:30.402Z,36.03
2023-02-27T11:12:12.154Z,36.96
2023-02-27T11:14:50.184Z,36.27
2023-02-27T11:17:27.458Z,36.52
2023-02-27T11:19:57.378Z,37.15
2023-02-27T11:22:27.407Z,37.67
2023-02-27T11:25:18.237Z,38.71
2023-02-27T11:27:47.000Z,37.45
2023-02-27T11:30:24.865Z,38.00
2023-02-27T11:32:54.398Z,37.64
2023-02-27T11:35:29.446Z,37.79
2023-02-27T11:38:01.261Z,36.99
2023-02-27T11:40:31.979Z,36.09
2023-02-27T11:43:04.936Z,33.73
2023-02-27T11:46:14.672Z,31.58
2023-02-27T11:48:26.595Z,32.54
2023-02-27T11:51:17.793Z,33.58
2023-02-27T11:54:29.985Z,33.75
2023-02-27T11:57:01.372Z,32.86
2023-02-27T11:59:40.130Z,32.89
2023-02-27T12:02:19.077Z,33.94
2023-02-27T12:04:53.653Z,33.68
2023-02-27T12:07:27.390Z,34.34
2023-02-27T12:10:02.490Z,33.73
2023-02-27T12:12:36.674Z,35.18
2023-02-27T12:15:16.400Z,33.95
2023-02-27T12:17:48.606Z,33.87
2023-02-27T12:20:31.021Z,34.47
2023-02-27T12:23:03.370Z,34.68
2023-02-27T12:25:37.423Z,34.60
2023-02-27T12:28:16.997Z,34.77
2023-02-27T12:30:50.981Z,35.01
2023-02-27T12:33:26.633Z,34.40
2023-02-27T12:36:00.392Z,34.47
2023-02-27T12:38:30.092Z,34.41
2023-02-27T12:41:09.733Z,34.63
2023-02-27T12:43:43.360Z,34.33
2023-02-27T12:46:26.043Z,33.75
2023-02-27T12:49:10.481Z,34.34
2023-02-27T12:51:52.112Z,34.38
2023-02-27T12:54:46.345Z,34.91
2023-02-27T12:57:33.167Z,35.48
2023-02-27T13:00:11.672Z,35.48
2023-02-27T13:02:49.522Z,35.78
2023-02-27T13:05:32.271Z,35.83
2023-02-27T13:08:06.146Z,36.89
2023-02-27T13:10:40.364Z,36.99
2023-02-27T13:13:17.662Z,36.64
2023-02-27T13:15:52.414Z,37.11
2023-02-27T13:18:32.392Z,36.91
2023-02-27T13:21:08.505Z,37.34
2023-02-27T13:23:47.712Z,37.63
2023-02-27T13:26:22.338Z,36.91
2023-02-27T13:28:51.343Z,37.63
2023-02-27T13:31:31.790Z,38.19
2023-02-27T13:34:09.269Z,38.78
2023-02-27T13:36:41.516Z,39.25
2023-02-27T13:39:43.739Z,39.63
2023-02-27T13:42:49.099Z,39.61
2023-02-27T13:45:50.248Z,39.89
2023-02-27T13:48:46.225Z,39.88
2023-02-27T13:51:44.751Z,39.86
2023-02-27T13:54:33.120Z,39.16
2023-02-27T13:57:16.516Z,39.05
2023-02-27T13:59:56.263Z,38.80
2023-02-27T14:02:34.591Z,37.38
2023-02-27T14:05:06.192Z,37.58
2023-02-27T14:07:48.146Z,37.28
2023-02-27T14:10:22.048Z,37.86
2023-02-27T14:12:49.929Z,37.86
2023-02-27T14:15:50.139Z,38.09
2023-02-27T14:18:58.332Z,38.81
2023-02-27T14:22:05.817Z,39.20
2023-02-27T14:24:41.404Z,39.41
2023-02-27T14:27:20.162Z,39.20
2023-02-27T14:29:51.555Z,38.74
2023-02-27T14:32:23.550Z,38.09
2023-02-27T14:34:55.330Z,38.10
2023-02-27T14:37:26.118Z,37.63
2023-02-27T14:39:56.931Z,37.26
2023-02-27T14:42:33.999Z,38.30
2023-02-27T14:45:02.561Z,37.77
2023-02-27T14:47:32.893Z,37.94
2023-02-27T14:50:03.993Z,38.41
2023-02-27T14:52:33.880Z,38.94
2023-02-27T14:55:16.818Z,39.34
2023-02-27T14:57:56.018Z,39.30
2023-02-27T15:00:35.584Z,39.48
2023-02-27T15:03:13.119Z,39.61
2023-02-27T15:05:42.490Z,39.74
2023-02-27T15:08:17.643Z,40.17
2023-02-27T15:10:45.834Z,40.53
2023-02-27T15:13:25.135Z,40.45
2023-02-27T15:15:56.929Z,40.62
2023-02-27T15:18:26.363Z,40.84
2023-02-27T15:21:01.354Z,40.56
2023-02-27T15:23:29.855Z,41.08
2023-02-27T15:25:59.186Z,41.61
2023-02-27T15:28:31.544Z,41.39
2023-02-27T15:30:59.527Z,41.45
2023-02-27T15:33:31.062Z,42.03
2023-02-27T15:35:59.672Z,42.46
2023-02-27T15:38:34.911Z,42.41
2023-02-27T15:41:04.884Z,42.86
2023-02-27T15:43:32.958Z,42.94
2023-02-27T15:46:01.114Z,42.90
2023-02-27T15:48:29.867Z,43.31
2023-02-27T15:51:01.027Z,43.02
2023-02-27T15:53:33.967Z,42.99
2023-02-27T15:56:06.091Z,43.24
2023-02-27T15:58:36.557Z,43.14
2023-02-27T16:01:08.666Z,43.06
2023-02-27T16:03:39.148Z,43.27
2023-02-27T16:06:13.045Z,43.00
2023-02-27T16:08:47.468Z,43.26
2023-02-27T16:11:22.278Z,43.40
2023-02-27T16:13:50.378Z,43.69
2023-02-27T16:16:31.765Z,43.46
2023-02-27T16:19:02.647Z,43.12
2023-02-27T16:21:32.123Z,43.41
2023-02-27T16:24:22.460Z,42.97
2023-02-27T16:26:53.046Z,42.67
2023-02-27T16:29:23.661Z,43.27
2023-02-27T16:31:54.110Z,43.35
2023-02-27T16:34:42.900Z,43.77
2023-02-27T16:37:20.322Z,44.03
2023-02-27T16:39:51.137Z,43.89
2023-02-27T16:42:19.491Z,42.96
2023-02-27T16:44:47.362Z,42.53
2023-02-27T16:47:15.251Z,42.19
2023-02-27T16:49:44.424Z,42.62
2023-02-27T16:52:12.965Z,43.38
2023-02-27T16:54:40.734Z,43.77
2023-02-27T16:57:10.511Z,44.46
2023-02-27T16:59:40.492Z,45.33
2023-02-27T17:02:13.730Z,45.69
2023-02-27T17:04:44.094Z,46.10
2023-02-27T17:07:15.785Z,46.58
2023-02-27T17:09:44.777Z,47.08
2023-02-27T17:12:14.238Z,47.39
2023-02-27T17:14:41.985Z,47.90
2023-02-27T17:17:11.367Z,48.34
2023-02-27T17:19:39.439Z,48.75
2023-02-27T17:22:07.579Z,49.01
2023-02-27T17:24:35.334Z,49.15
2023-02-27T17:27:03.241Z,49.49
2023-02-27T17:29:32.393Z,49.71
2023-02-27T17:32:00.293Z,49.99
2023-02-27T17:34:28.183Z,50.29
2023-02-27T17:36:55.938Z,50.33
2023-02-27T17:39:23.727Z,50.53
2023-02-27T17:41:52.920Z,50.62
2023-02-27T17:44:20.853Z,50.80
2023-02-27T17:46:50.036Z,51.03
2023-02-27T17:49:17.832Z,51.17
2023-02-27T17:51:45.700Z,51.08
2023-02-27T17:54:13.457Z,51.08
2023-02-27T17:56:41.216Z,51.43
2023-02-27T17:59:09.035Z,51.63
2023-02-27T18:01:36.910Z,51.66
2023-02-27T18:04:07.922Z,51.73
2023-02-27T18:06:35.776Z,51.95
2023-02-27T18:09:03.606Z,52.15
2023-02-27T18:11:31.381Z,52.39
2023-02-27T18:13:59.207Z,52.46
2023-02-27T18:16:27.324Z,52.46
2023-02-27T18:18:55.459Z,52.66
2023-02-27T18:21:24.735Z,52.54
2023-02-27T18:23:53.084Z,52.83
2023-02-27T18:26:30.027Z,52.89
2023-02-27T18:29:00.379Z,52.99
2023-02-27T18:31:30.118Z,53.12
2023-02-27T18:33:58.154Z,53.50
2023-02-27T18:36:28.051Z,53.74
2023-02-27T18:38:56.087Z,53.96
2023-02-27T18:41:23.919Z,54.38
2023-02-27T18:43:52.120Z,54.52
2023-02-27T18:46:20.532Z,55.12
2023-02-27T18:48:48.537Z,55.49
2023-02-27T18:51:17.594Z,55.87
2023-02-27T18:53:49.114Z,56.24
2023-02-27T18:56:18.668Z,56.38
2023-02-27T18:58:46.781Z,56.67
2023-02-27T19:01:20.152Z,56.91
2023-02-27T19:03:48.053Z,57.06
2023-02-27T19:06:16.053Z,57.56
2023-02-27T19:08:43.925Z,57.73
2023-02-27T19:11:22.144Z,57.97
2023-02-27T19:13:50.054Z,58.36
2023-02-27T19:16:18.069Z,58.77
2023-02-27T19:18:45.930Z,59.02
2023-02-27T19:21:13.712Z,59.33
2023-02-27T19:23:41.501Z,60.02
2023-02-27T19:26:09.341Z,60.59
2023-02-27T19:28:38.522Z,60.98
2023-02-27T19:31:10.723Z,60.91
2023-02-27T19:33:39.291Z,60.95
2023-02-27T19:36:08.057Z,61.18
2023-02-27T19:38:36.230Z,61.35
2023-02-27T19:41:04.735Z,61.73
2023-02-27T19:43:32.729Z,62.03
2023-02-27T19:46:05.975Z,62.52
2023-02-27T19:48:34.041Z,62.65
2023-02-27T19:51:03.299Z,62.95
2023-02-27T19:53:31.742Z,62.96
2023-02-27T19:56:01.479Z,63.05
2023-02-27T19:58:29.530Z,63.36
2023-02-27T20:00:57.554Z,63.54
2023-02-27T20:03:27.333Z,63.82
2023-02-27T20:05:55.103Z,64.19
2023-02-27T20:08:23.163Z,64.38
2023-02-27T20:10:55.765Z,64.45
2023-02-27T20:13:23.914Z,64.59
2023-02-27T20:15:58.982Z,65.07
2023-02-27T20:18:29.810Z,64.98
2023-02-27T20:21:03.125Z,65.17
2023-02-27T20:23:31.853Z,65.53
2023-02-27T20:26:00.330Z,65.92
2023-02-27T20:28:29.047Z,66.40
2023-02-27T20:30:56.829Z,66.77
2023-02-27T20:33:24.607Z,66.79
2023-02-27T20:35:53.784Z,67.07
2023-02-27T20:38:22.673Z,67.02
2023-02-27T20:40:51.046Z,67.10
2023-02-27T20:43:18.929Z,67.24
2023-02-27T20:45:46.822Z,67.43
2023-02-27T20:48:14.628Z,67.37
2023-02-27T20:50:42.684Z,67.60
2023-02-27T20:53:14.734Z,67.87
2023-02-27T20:55:48.774Z,67.97
2023-02-27T20:58:17.155Z,68.23
2023-02-27T21:00:45.035Z,68.59
2023-02-27T21:03:12.884Z,68.63
2023-02-27T21:05:47.270Z,69.13
2023-02-27T21:08:16.674Z,69.19
2023-02-27T21:10:44.825Z,69.24
2023-02-27T21:13:12.649Z,69.85
2023-02-27T21:15:40.466Z,70.07
2023-02-27T21:18:09.111Z,70.46
2023-02-27T21:20:36.994Z,70.80
2023-02-27T21:23:04.798Z,71.20
2023-02-27T21:25:34.116Z,71.50
2023-02-27T21:28:02.279Z,71.77
2023-02-27T21:30:30.236Z,72.10
2023-02-27T21:32:58.557Z,72.24
2023-02-27T21:35:26.395Z,72.21
2023-02-27T21:37:54.855Z,72.49
2023-02-27T21:40:22.897Z,72.63
2023-02-27T21:42:52.943Z,72.51
2023-02-27T21:45:20.771Z,72.64
2023-02-27T21:47:48.635Z,72.81
2023-02-27T21:50:18.171Z,72.83
2023-02-27T21:52:46.045Z,72.98
2023-02-27T21:55:13.979Z,73.10
2023-02-27T21:57:41.788Z,73.29
2023-02-27T22:00:12.840Z,73.53
2023-02-27T22:02:40.999Z,73.41
2023-02-27T22:05:09.564Z,73.89
2023-02-27T22:07:38.336Z,73.91
2023-02-27T22:10:06.785Z,74.02
2023-02-27T22:12:34.554Z,74.13
2023-02-27T22:15:02.411Z,74.19
2023-02-27T22:17:31.590Z,74.28
2023-02-27T22:19:59.422Z,74.41
2023-02-27T22:22:27.311Z,74.62
2023-02-27T22:24:55.173Z,74.81
2023-02-27T22:27:22.949Z,74.78
2023-02-27T22:29:50.775Z,74.86
2023-02-27T22:32:18.555Z,74.98
2023-02-27T22:34:47.761Z,75.03
2023-02-27T22:37:16.183Z,74.80
2023-02-27T22:39:44.277Z,74.90
2023-02-27T22:42:12.071Z,74.75
2023-02-27T22:44:39.879Z,74.78
2023-02-27T22:47:07.628Z,74.98
2023-02-27T22:49:37.027Z,75.20
2023-02-27T22:52:06.497Z,75.32
2023-02-27T22:54:34.279Z,75.31
2023-02-27T22:57:02.117Z,75.60
2023-02-27T22:59:29.855Z,75.62
2023-02-27T23:01:57.720Z,75.53
2023-02-27T23:04:25.562Z,75.54
2023-02-27T23:06:55.957Z,75.34
2023-02-27T23:09:27.180Z,75.47
2023-02-27T23:11:55.186Z,75.40
2023-02-27T23:14:23.537Z,75.45
2023-02-27T23:16:51.408Z,75.72
2023-02-27T23:19:21.278Z,75.99
2023-02-27T23:21:49.359Z,76.23
2023-02-27T23:24:19.126Z,76.53
2023-02-27T23:26:49.843Z,76.67
2023-02-27T23:29:18.465Z,76.96
2023-02-27T23:31:46.361Z,77.24
2023-02-27T23:34:14.305Z,77.58
2023-02-27T23:36:42.089Z,77.80
2023-02-27T23:39:10.641Z,78.10
2023-02-27T23:41:38.534Z,78.23
2023-02-27T23:44:25.130Z,78.59
2023-02-27T23:46:52.887Z,78.60
2023-02-27T23:49:20.882Z,78.81
2023-02-27T23:51:48.686Z,79.34
2023-02-27T23:54:16.502Z,79.75
2023-02-27T23:56:44.339Z,79.63
2023-02-27T23:59:13.469Z,79.70
